Time;durP1;ratioP1;P1;durP2;ratioP2;P2;SDS_P1;SDS_P2;PMS_P1;PMS_P2;Temp;Humidity;BMP_temperature;BMP_pressure;BME280_temperature;BME280_humidity;BME280_pressure;Samples;Min_cycle;Max_cycle;Signal;HPM_P1;HPM_P2
2022/07/02 00:00:51;;;;;;;21.07;19.17;;;14.30;99.90;;;;;;5075364;28;20896;-85
2022/07/02 00:03:30;;;;;;;21.70;19.70;;;14.30;99.90;;;;;;5081505;28;20393;-85
2022/07/02 00:05:59;;;;;;;20.83;18.83;;;14.20;99.90;;;;;;5082359;28;20395;-87
2022/07/02 00:08:26;;;;;;;19.08;17.38;;;14.10;99.90;;;;;;5089557;28;20372;-84
2022/07/02 00:10:53;;;;;;;19.02;17.33;;;14.10;99.90;;;;;;5082824;28;20383;-85
2022/07/02 00:13:20;;;;;;;19.20;17.33;;;14.00;99.90;;;;;;5085273;28;20504;-86
2022/07/02 00:15:46;;;;;;;18.13;16.33;;;14.00;99.90;;;;;;5069100;28;20390;-86
2022/07/02 00:18:13;;;;;;;18.38;16.75;;;14.00;99.90;;;;;;5082144;28;20467;-85
2022/07/02 00:20:42;;;;;;;17.15;15.65;;;13.90;99.90;;;;;;5080806;28;20380;-85
2022/07/02 00:23:08;;;;;;;17.83;16.13;;;13.80;99.90;;;;;;5087303;28;20916;-82
2022/07/02 00:25:39;;;;;;;19.27;17.30;;;13.80;99.90;;;;;;5073513;28;20514;-82
2022/07/02 00:28:15;;;;;;;18.35;16.73;;;13.70;99.90;;;;;;5084980;28;20380;-85
2022/07/02 00:30:46;;;;;;;18.52;16.77;;;13.70;99.90;;;;;;5068375;28;20433;-83
2022/07/02 00:33:14;;;;;;;19.53;17.63;;;13.60;99.90;;;;;;5068659;28;20851;-84
2022/07/02 00:35:40;;;;;;;19.25;17.40;;;13.60;99.90;;;;;;5072720;28;20378;-85
2022/07/02 00:38:07;;;;;;;19.70;17.90;;;13.60;99.90;;;;;;5068879;28;20412;-83
2022/07/02 00:40:33;;;;;;;19.38;17.58;;;13.50;99.90;;;;;;5069903;28;20857;-83
2022/07/02 00:42:59;;;;;;;19.60;17.63;;;13.50;99.90;;;;;;5072965;28;20411;-84
2022/07/02 00:45:26;;;;;;;19.23;17.43;;;13.40;99.90;;;;;;5071241;28;20895;-83
2022/07/02 00:47:55;;;;;;;19.85;18.05;;;13.40;99.90;;;;;;5071572;28;20397;-82
2022/07/02 00:50:22;;;;;;;20.67;18.67;;;13.40;99.90;;;;;;5081331;28;20881;-84
2022/07/02 00:52:48;;;;;;;21.87;19.77;;;13.40;99.90;;;;;;5087138;28;20463;-84
2022/07/02 00:55:14;;;;;;;20.13;18.23;;;13.40;99.90;;;;;;5081056;28;20401;-84
2022/07/02 00:57:40;;;;;;;20.55;18.60;;;13.40;99.90;;;;;;5071358;28;20390;-82
2022/07/02 01:00:07;;;;;;;19.95;18.10;;;13.40;99.90;;;;;;5074762;28;20370;-84
2022/07/02 01:02:36;;;;;;;20.40;18.08;;;13.30;99.90;;;;;;5069546;28;20526;-83
2022/07/02 01:05:03;;;;;;;21.15;19.13;;;13.20;99.90;;;;;;5075289;28;21034;-84
2022/07/02 01:07:29;;;;;;;21.63;19.58;;;13.20;99.90;;;;;;5069763;28;20876;-85
2022/07/02 01:10:18;;;;;;;21.08;18.88;;;13.10;99.90;;;;;;5076444;28;20389;-84
2022/07/02 01:12:45;;;;;;;21.67;19.53;;;13.10;99.90;;;;;;5084356;28;20434;-85
2022/07/02 01:15:12;;;;;;;20.58;18.67;;;13.10;99.90;;;;;;5075934;28;20886;-84
2022/07/02 01:17:38;;;;;;;21.75;19.35;;;13.10;99.90;;;;;;5080788;28;20385;-83
2022/07/02 01:20:04;;;;;;;21.08;19.08;;;13.00;99.90;;;;;;5073909;28;20378;-84
2022/07/02 01:22:40;;;;;;;20.43;18.57;;;13.10;99.90;;;;;;5073209;28;20374;-83
2022/07/02 01:25:07;;;;;;;22.17;20.07;;;13.20;99.90;;;;;;5080462;28;20415;-83
2022/07/02 01:27:36;;;;;;;21.92;19.70;;;13.30;99.90;;;;;;5087476;28;20392;-84
2022/07/02 01:30:03;;;;;;;22.88;20.67;;;13.40;99.90;;;;;;5091446;28;20420;-83
2022/07/02 01:32:29;;;;;;;22.00;19.85;;;13.40;99.90;;;;;;5092455;28;20388;-84
2022/07/02 01:35:03;;;;;;;22.95;20.85;;;13.50;99.90;;;;;;5091215;28;20396;-83
2022/07/02 01:37:29;;;;;;;22.50;20.23;;;13.60;99.90;;;;;;5092714;28;20412;-83
2022/07/02 01:39:54;;;;;;;23.13;20.63;;;13.60;99.90;;;;;;5091574;28;20412;-84
2022/07/02 01:42:20;;;;;;;23.50;21.10;;;13.60;99.90;;;;;;5089193;28;20377;-82
2022/07/02 01:44:46;;;;;;;23.43;21.10;;;13.70;99.90;;;;;;5073532;28;20441;-84
2022/07/02 01:47:12;;;;;;;23.92;21.42;;;13.70;99.90;;;;;;5091260;28;20385;-83
2022/07/02 01:49:39;;;;;;;22.80;20.70;;;13.80;99.90;;;;;;5086194;28;20569;-84
2022/07/02 01:52:06;;;;;;;24.40;21.83;;;13.80;99.90;;;;;;5073635;28;20378;-83
2022/07/02 01:54:33;;;;;;;23.10;19.95;;;13.90;99.90;;;;;;5077961;28;20826;-84
2022/07/02 01:57:00;;;;;;;22.55;20.27;;;13.90;99.90;;;;;;5088986;28;20451;-83
2022/07/02 01:59:26;;;;;;;22.55;20.45;;;13.90;99.90;;;;;;5075948;28;20395;-84
2022/07/02 02:01:51;;;;;;;23.30;21.10;;;13.90;99.90;;;;;;5091258;28;20377;-83
2022/07/02 02:04:17;;;;;;;23.30;21.07;;;14.00;99.90;;;;;;5074497;28;20382;-85
2022/07/02 02:06:43;;;;;;;22.65;20.38;;;14.00;99.90;;;;;;5074714;28;20807;-83
2022/07/02 02:09:08;;;;;;;21.88;19.92;;;14.00;99.90;;;;;;5072713;28;20378;-84
2022/07/02 02:11:34;;;;;;;21.93;19.87;;;13.90;99.90;;;;;;5071394;28;20388;-85
2022/07/02 02:14:00;;;;;;;23.27;20.87;;;14.00;99.90;;;;;;5078417;28;20453;-84
2022/07/02 02:16:27;;;;;;;22.20;20.00;;;13.90;99.90;;;;;;5072537;28;20455;-82
2022/07/02 02:18:53;;;;;;;22.65;20.50;;;13.90;99.90;;;;;;5070957;28;20412;-82
2022/07/02 02:21:19;;;;;;;23.40;21.10;;;13.90;99.90;;;;;;5072211;28;20421;-83
2022/07/02 02:23:45;;;;;;;23.08;20.90;;;13.80;99.90;;;;;;5075815;28;20423;-85
2022/07/02 02:26:11;;;;;;;22.27;20.08;;;13.80;99.90;;;;;;5083780;28;20394;-82
2022/07/02 02:28:36;;;;;;;23.67;21.48;;;13.70;99.90;;;;;;5079512;28;20409;-82
2022/07/02 02:31:02;;;;;;;22.60;20.27;;;13.70;99.90;;;;;;5077487;28;20911;-85
2022/07/02 02:33:28;;;;;;;23.48;21.15;;;13.60;99.90;;;;;;5072445;28;20421;-85
2022/07/02 02:35:53;;;;;;;23.20;20.95;;;13.60;99.90;;;;;;5076066;28;20393;-83
2022/07/02 02:38:19;;;;;;;22.87;20.67;;;13.60;99.90;;;;;;5072785;28;20462;-82
2022/07/02 02:40:45;;;;;;;23.05;20.75;;;13.50;99.90;;;;;;5072039;28;20429;-83
2022/07/02 02:43:11;;;;;;;22.67;20.53;;;13.50;99.90;;;;;;5088367;28;20388;-84
2022/07/02 02:45:36;;;;;;;23.27;20.97;;;13.50;99.90;;;;;;5074373;28;20432;-83
2022/07/02 02:48:02;;;;;;;25.33;22.70;;;13.40;99.90;;;;;;5072859;28;20470;-83
2022/07/02 02:50:28;;;;;;;23.77;21.48;;;13.50;99.90;;;;;;5084039;28;20537;-83
2022/07/02 02:52:53;;;;;;;24.80;22.40;;;13.40;99.90;;;;;;5075705;28;20429;-82
2022/07/02 02:55:20;;;;;;;23.38;20.98;;;13.40;99.90;;;;;;5072761;28;20481;-84
2022/07/02 02:57:45;;;;;;;23.17;20.80;;;13.40;99.90;;;;;;5076880;28;20413;-82
2022/07/02 03:00:12;;;;;;;22.90;20.70;;;13.40;99.90;;;;;;5088981;28;20882;-83
2022/07/02 03:02:37;;;;;;;21.50;19.50;;;13.30;99.90;;;;;;5084826;28;20412;-84
2022/07/02 03:05:03;;;;;;;21.70;19.63;;;13.30;99.90;;;;;;5092110;28;20481;-84
2022/07/02 03:07:29;;;;;;;23.40;21.10;;;13.30;99.90;;;;;;5073809;28;20371;-85
2022/07/02 03:09:54;;;;;;;23.57;21.23;;;13.30;99.90;;;;;;5091923;28;20449;-83
2022/07/02 03:12:20;;;;;;;22.27;19.98;;;13.30;99.90;;;;;;5092851;28;21711;-83
2022/07/02 03:14:45;;;;;;;23.50;21.13;;;13.20;99.90;;;;;;5077770;28;20408;-83
2022/07/02 03:17:11;;;;;;;23.07;20.77;;;13.20;99.90;;;;;;5074408;28;20389;-84
2022/07/02 03:19:37;;;;;;;24.17;21.88;;;13.20;99.90;;;;;;5077767;28;20385;-83
2022/07/02 03:22:02;;;;;;;23.63;21.43;;;13.20;99.90;;;;;;5069473;28;20935;-84
2022/07/02 03:24:28;;;;;;;24.83;22.33;;;13.20;99.90;;;;;;5082447;28;20380;-83
2022/07/02 03:26:54;;;;;;;23.38;21.08;;;13.20;99.90;;;;;;5088079;28;20865;-83
2022/07/02 03:29:19;;;;;;;22.57;20.27;;;13.30;99.90;;;;;;5078680;28;20382;-82
2022/07/02 03:31:45;;;;;;;22.15;20.05;;;13.20;99.90;;;;;;5072440;28;20454;-83
2022/07/02 03:34:11;;;;;;;23.30;21.00;;;13.30;99.90;;;;;;5091210;28;21057;-83
2022/07/02 03:36:36;;;;;;;23.17;20.83;;;13.30;99.90;;;;;;5084898;28;20787;-83
2022/07/02 03:39:03;;;;;;;22.52;20.30;;;13.30;99.90;;;;;;5071141;28;20871;-84
2022/07/02 03:41:28;;;;;;;23.67;21.27;;;13.40;99.90;;;;;;5072823;28;20379;-84
2022/07/02 03:43:54;;;;;;;23.75;21.48;;;13.40;99.90;;;;;;5080381;28;20403;-84
2022/07/02 03:46:19;;;;;;;21.87;19.67;;;13.40;99.90;;;;;;5083901;28;20950;-83
2022/07/02 03:48:45;;;;;;;22.20;20.02;;;13.50;99.90;;;;;;5090625;28;20388;-83
2022/07/02 03:51:11;;;;;;;21.10;19.20;;;13.50;99.90;;;;;;5075094;28;20402;-82
2022/07/02 03:53:36;;;;;;;21.83;19.73;;;13.50;99.90;;;;;;5073155;28;20402;-84
2022/07/02 03:56:03;;;;;;;22.23;20.13;;;13.60;99.90;;;;;;5070678;28;20394;-84
2022/07/02 03:58:30;;;;;;;20.65;18.75;;;13.70;99.90;;;;;;5070356;28;20374;-85
2022/07/02 04:00:57;;;;;;;22.40;20.20;;;13.70;99.90;;;;;;5071419;28;20418;-83
2022/07/02 04:03:23;;;;;;;23.13;20.83;;;13.70;99.90;;;;;;5089776;28;20844;-85
2022/07/02 04:05:48;;;;;;;24.48;21.98;;;13.80;99.90;;;;;;5089864;28;20451;-85
2022/07/02 04:08:15;;;;;;;23.90;21.50;;;13.90;99.90;;;;;;5088184;28;20380;-84
2022/07/02 04:10:41;;;;;;;23.10;20.95;;;13.90;99.90;;;;;;5076446;28;20398;-86
2022/07/02 04:13:08;;;;;;;24.48;22.20;;;14.00;99.90;;;;;;5082601;28;20428;-84
2022/07/02 04:15:34;;;;;;;24.40;22.00;;;14.00;99.90;;;;;;5088408;28;20840;-83
2022/07/02 04:18:00;;;;;;;25.08;22.67;;;14.10;99.90;;;;;;5089935;28;20368;-84
2022/07/02 04:20:26;;;;;;;23.50;21.30;;;14.10;99.90;;;;;;5076559;28;20370;-83
2022/07/02 04:22:51;;;;;;;25.97;23.37;;;14.20;99.90;;;;;;5084414;28;20396;-85
2022/07/02 04:25:17;;;;;;;24.40;21.90;;;14.30;99.90;;;;;;5081864;28;20371;-84
2022/07/02 04:27:43;;;;;;;25.02;22.48;;;14.40;99.90;;;;;;5077118;28;20410;-85
2022/07/02 04:30:09;;;;;;;23.50;21.30;;;14.50;99.90;;;;;;5070339;28;20378;-85
2022/07/02 04:32:35;;;;;;;23.73;21.42;;;14.50;99.90;;;;;;5073754;28;20390;-84
2022/07/02 04:35:01;;;;;;;26.35;23.65;;;14.70;99.90;;;;;;5069169;28;20406;-86
2022/07/02 04:37:26;;;;;;;25.03;22.53;;;14.80;99.90;;;;;;5070513;28;20457;-83
2022/07/02 04:39:52;;;;;;;25.23;22.67;;;14.90;99.90;;;;;;5086567;28;20380;-84
2022/07/02 04:42:18;;;;;;;24.20;21.73;;;15.10;99.90;;;;;;5088811;28;20388;-83
2022/07/02 04:44:43;;;;;;;24.17;21.87;;;15.20;99.90;;;;;;5089106;28;20372;-84
2022/07/02 04:47:09;;;;;;;23.52;21.15;;;15.40;99.90;;;;;;5088446;28;20703;-84
2022/07/02 04:49:35;;;;;;;21.37;19.37;;;15.60;99.90;;;;;;5081591;28;20381;-84
2022/07/02 04:52:00;;;;;;;21.30;19.30;;;15.90;99.90;;;;;;5093249;28;20400;-85
2022/07/02 04:54:26;;;;;;;19.57;17.57;;;16.10;99.90;;;;;;5092069;28;20400;-84
2022/07/02 04:56:52;;;;;;;20.63;18.53;;;16.30;99.90;;;;;;5092815;28;20383;-87
2022/07/02 04:59:18;;;;;;;18.92;17.15;;;16.40;99.90;;;;;;5092129;28;20376;-87
2022/07/02 05:01:44;;;;;;;18.17;16.58;;;16.60;99.90;;;;;;5091098;28;20380;-85
2022/07/02 05:04:10;;;;;;;17.17;15.10;;;17.00;99.90;;;;;;5092997;28;20862;-85
2022/07/02 05:06:36;;;;;;;14.90;13.35;;;17.40;99.90;;;;;;5091168;28;20384;-84
2022/07/02 05:09:02;;;;;;;15.60;14.07;;;17.80;99.90;;;;;;5076368;28;20390;-84
2022/07/02 05:11:28;;;;;;;14.30;12.90;;;18.00;99.90;;;;;;5077263;28;20388;-84
2022/07/02 05:13:53;;;;;;;14.35;13.05;;;18.20;99.90;;;;;;5072963;28;20397;-87
2022/07/02 05:16:19;;;;;;;12.63;11.23;;;18.40;99.90;;;;;;5074365;28;20413;-84
2022/07/02 05:18:44;;;;;;;12.07;10.87;;;18.80;99.90;;;;;;5091618;28;20388;-85
2022/07/02 05:21:10;;;;;;;13.35;10.80;;;19.20;99.90;;;;;;5085661;28;20902;-83
2022/07/02 05:23:36;;;;;;;12.35;11.02;;;19.50;99.90;;;;;;5072519;28;20449;-83
2022/07/02 05:26:02;;;;;;;13.20;11.10;;;19.60;99.90;;;;;;5079626;28;20484;-85
2022/07/02 05:28:28;;;;;;;12.25;10.95;;;19.40;99.90;;;;;;5090728;28;20372;-83
2022/07/02 05:30:54;;;;;;;12.40;11.20;;;19.30;99.90;;;;;;5090226;28;20368;-84
2022/07/02 05:33:19;;;;;;;13.80;11.27;;;19.30;99.90;;;;;;5090964;28;20384;-84
2022/07/02 05:35:46;;;;;;;13.63;11.35;;;19.30;99.90;;;;;;5092354;28;20412;-84
2022/07/02 05:38:12;;;;;;;13.43;10.98;;;19.50;99.90;;;;;;5085315;28;20408;-84
2022/07/02 05:40:37;;;;;;;13.38;11.23;;;19.50;99.90;;;;;;5090007;28;20412;-83
2022/07/02 05:43:03;;;;;;;12.93;10.20;;;19.50;99.90;;;;;;5086409;28;20372;-83
2022/07/02 05:45:29;;;;;;;12.17;10.47;;;19.50;99.90;;;;;;5090858;28;20373;-83
2022/07/02 05:47:55;;;;;;;10.80;9.70;;;19.50;99.90;;;;;;5077529;28;20737;-84
2022/07/02 05:50:21;;;;;;;11.77;10.35;;;19.70;99.90;;;;;;5084320;28;20391;-84
2022/07/02 05:52:47;;;;;;;11.15;10.02;;;19.80;99.90;;;;;;5084808;28;20392;-83
2022/07/02 05:55:14;;;;;;;10.10;9.20;;;19.70;99.90;;;;;;5090958;28;20411;-84
2022/07/02 05:57:40;;;;;;;11.88;10.20;;;19.80;99.90;;;;;;5089765;28;20396;-83
2022/07/02 06:00:08;;;;;;;10.93;9.60;;;19.70;99.90;;;;;;5091175;28;20395;-84
2022/07/02 06:02:34;;;;;;;11.48;9.35;;;19.80;99.90;;;;;;5070743;28;20410;-83
2022/07/02 06:07:38;;;;;;;12.15;9.55;;;19.80;99.90;;;;;;5075262;28;20405;-83
2022/07/02 06:07:45;;;;;;;10.32;9.32;;;19.80;99.90;;;;;;5080127;28;20390;-82
2022/07/02 06:10:17;;;;;;;11.32;9.90;;;19.90;99.90;;;;;;5072999;28;20386;-83
2022/07/02 06:12:47;;;;;;;10.95;9.10;;;19.90;99.90;;;;;;5074005;28;20967;-84
2022/07/02 06:15:13;;;;;;;10.82;9.23;;;20.10;99.90;;;;;;5072521;28;20397;-83
2022/07/02 06:17:38;;;;;;;11.13;9.15;;;20.20;99.90;;;;;;5070424;28;20425;-83
2022/07/02 06:20:04;;;;;;;9.83;8.80;;;20.30;99.90;;;;;;5071241;28;20477;-82
2022/07/02 06:22:30;;;;;;;9.80;8.30;;;20.50;99.90;;;;;;5082786;28;20388;-86
2022/07/02 06:24:55;;;;;;;10.40;9.10;;;20.90;99.90;;;;;;5090288;28;20377;-85
2022/07/02 06:27:21;;;;;;;13.32;9.10;;;21.20;99.90;;;;;;5092450;28;20387;-84
2022/07/02 06:29:48;;;;;;;10.57;8.77;;;21.40;99.90;;;;;;5090292;28;20377;-85
2022/07/02 06:32:16;;;;;;;9.35;7.80;;;21.60;99.90;;;;;;5076643;28;20772;-84
2022/07/02 06:34:42;;;;;;;8.50;7.70;;;21.90;99.90;;;;;;5084003;28;20412;-85
2022/07/02 06:37:08;;;;;;;9.25;8.20;;;22.00;99.90;;;;;;5073272;28;20412;-85
2022/07/02 06:39:33;;;;;;;12.07;8.57;;;22.10;99.90;;;;;;5080498;28;20394;-85
2022/07/02 06:44:43;;;;;;;9.20;7.70;;;22.40;99.90;;;;;;5072006;28;20369;-85
2022/07/02 06:47:09;;;;;;;9.65;7.93;;;22.60;99.90;;;;;;5074936;28;20752;-84
2022/07/02 06:49:35;;;;;;;10.90;8.60;;;22.60;99.90;;;;;;5070508;28;20731;-84
2022/07/02 06:52:00;;;;;;;9.68;7.57;;;22.70;99.90;;;;;;5069965;28;20740;-87
2022/07/02 06:54:26;;;;;;;8.20;7.40;;;22.90;99.90;;;;;;5070169;28;20903;-84
2022/07/02 06:56:52;;;;;;;10.75;7.60;;;23.10;99.90;;;;;;5086665;28;20923;-85
2022/07/02 06:59:17;;;;;;;11.20;7.50;;;23.30;99.90;;;;;;5071212;28;20390;-85
2022/07/02 07:01:43;;;;;;;8.10;7.30;;;23.60;99.90;;;;;;5072254;28;20732;-85
2022/07/02 07:04:09;;;;;;;9.23;7.40;;;23.90;99.90;;;;;;5072360;28;20381;-84
2022/07/02 07:06:39;;;;;;;7.17;6.47;;;24.20;99.90;;;;;;5071982;28;20370;-85
2022/07/02 07:09:04;;;;;;;9.43;6.68;;;24.40;99.90;;;;;;5070442;28;20394;-85
2022/07/02 07:11:30;;;;;;;7.70;6.43;;;24.60;99.90;;;;;;5069752;28;20386;-81
2022/07/02 07:13:55;;;;;;;8.07;6.30;;;24.70;99.90;;;;;;5068774;28;20417;-84
2022/07/02 07:16:21;;;;;;;7.00;5.68;;;24.80;99.90;;;;;;5071323;28;20790;-82
2022/07/02 07:19:00;;;;;;;7.80;5.73;;;24.80;99.90;;;;;;5077484;28;20386;-82
2022/07/02 07:21:26;;;;;;;6.97;5.32;;;25.00;99.90;;;;;;5078137;28;20402;-82
2022/07/02 07:23:51;;;;;;;7.60;5.57;;;25.20;99.90;;;;;;5089436;28;20372;-82
2022/07/02 07:26:17;;;;;;;6.20;4.93;;;25.10;99.90;;;;;;5090676;28;20394;-85
2022/07/02 07:28:43;;;;;;;8.10;5.13;;;25.30;99.90;;;;;;5088986;28;20747;-82
2022/07/02 07:31:09;;;;;;;7.60;4.53;;;25.30;99.90;;;;;;5077304;28;20904;-85
2022/07/02 07:33:34;;;;;;;8.50;4.43;;;25.40;99.90;;;;;;5070692;28;20428;-82
2022/07/02 07:36:00;;;;;;;5.77;4.47;;;25.40;99.90;;;;;;5082528;28;20393;-82
2022/07/02 07:38:28;;;;;;;5.75;4.50;;;25.30;99.90;;;;;;5071446;28;20373;-83
2022/07/02 07:40:54;;;;;;;6.00;4.63;;;25.10;99.90;;;;;;5074478;28;20417;-84
2022/07/02 07:43:19;;;;;;;5.95;4.15;;;25.00;99.90;;;;;;5071414;28;20402;-83
2022/07/02 07:45:46;;;;;;;6.72;4.30;;;25.10;99.90;;;;;;5069918;28;20473;-85
2022/07/02 07:48:13;;;;;;;7.15;4.25;;;25.20;99.90;;;;;;5070094;28;20451;-84
2022/07/02 07:50:39;;;;;;;5.45;3.85;;;25.10;99.90;;;;;;5069227;28;20378;-84
2022/07/02 07:53:05;;;;;;;5.90;3.67;;;25.00;99.90;;;;;;5075502;28;20435;-84
2022/07/02 07:55:30;;;;;;;6.10;3.93;;;24.90;99.90;;;;;;5082983;28;20392;-83
2022/07/02 07:57:56;;;;;;;5.15;3.97;;;24.90;99.90;;;;;;5090208;28;20372;-83
2022/07/02 08:00:22;;;;;;;5.10;3.53;;;25.00;99.90;;;;;;5090303;28;20585;-82
2022/07/02 08:02:48;;;;;;;4.93;3.80;;;25.10;99.90;;;;;;5077451;28;20401;-83
2022/07/02 08:05:14;;;;;;;6.53;3.40;;;25.10;99.90;;;;;;5069799;28;20409;-84
2022/07/02 08:07:41;;;;;;;5.07;3.20;;;25.10;99.90;;;;;;5079429;28;20886;-83
2022/07/02 08:10:08;;;;;;;6.15;3.00;;;25.20;99.90;;;;;;5072593;28;20382;-85
2022/07/02 08:12:35;;;;;;;4.10;2.85;;;25.20;99.80;;;;;;5087028;28;20427;-83
2022/07/02 08:15:00;;;;;;;4.97;3.30;;;25.10;99.90;;;;;;5090715;28;20409;-83
2022/07/02 08:17:29;;;;;;;3.67;2.90;;;25.00;99.60;;;;;;5089239;28;20493;-84
2022/07/02 08:19:58;;;;;;;4.07;2.53;;;25.10;99.50;;;;;;5072591;28;20394;-82
2022/07/02 08:22:23;;;;;;;6.72;2.50;;;25.20;99.90;;;;;;5071075;28;20428;-84
2022/07/02 08:24:49;;;;;;;5.45;2.40;;;25.20;98.80;;;;;;5069714;28;20386;-84
2022/07/02 08:27:15;;;;;;;5.70;2.40;;;25.20;98.10;;;;;;5089517;28;20862;-85
2022/07/02 08:29:40;;;;;;;7.20;2.30;;;25.20;98.50;;;;;;5089277;28;20385;-84
2022/07/02 08:32:07;;;;;;;5.15;2.28;;;25.20;98.10;;;;;;5088369;28;21230;-85
2022/07/02 08:34:33;;;;;;;4.05;2.45;;;25.20;98.20;;;;;;5088780;28;20438;-84
2022/07/02 08:37:00;;;;;;;4.53;2.20;;;25.50;98.00;;;;;;5090169;28;20801;-83
2022/07/02 08:39:26;;;;;;;4.55;2.30;;;25.50;98.50;;;;;;5090343;28;20376;-84
2022/07/02 08:41:54;;;;;;;4.95;2.28;;;25.70;98.00;;;;;;5089840;28;21549;-85
2022/07/02 08:44:24;;;;;;;8.82;2.47;;;25.80;96.40;;;;;;5092251;28;20410;-83
2022/07/02 08:46:53;;;;;;;3.33;1.70;;;25.80;96.20;;;;;;5084634;28;20483;-83
2022/07/02 08:49:19;;;;;;;4.95;2.05;;;25.80;95.50;;;;;;5078876;28;20390;-85
2022/07/02 08:54:22;;;;;;;7.13;2.00;;;26.00;94.10;;;;;;5080998;28;20875;-85
2022/07/02 08:56:50;;;;;;;3.45;1.80;;;26.30;96.10;;;;;;5084710;28;20522;-84
2022/07/02 08:59:17;;;;;;;7.55;1.80;;;26.50;94.50;;;;;;5074968;28;20380;-83
2022/07/02 09:01:47;;;;;;;3.40;1.30;;;26.60;94.50;;;;;;5079940;28;20764;-86
2022/07/02 09:04:14;;;;;;;2.70;1.60;;;26.70;92.90;;;;;;5066303;28;20479;-84
2022/07/02 09:06:41;;;;;;;2.80;1.70;;;26.70;93.90;;;;;;5072946;28;20442;-84
2022/07/02 09:09:09;;;;;;;2.47;1.40;;;26.60;93.00;;;;;;5073222;28;20442;-84
2022/07/02 09:11:35;;;;;;;2.08;1.50;;;26.70;93.30;;;;;;5071093;28;20867;-85
2022/07/02 09:14:01;;;;;;;3.70;1.50;;;26.80;92.50;;;;;;5070305;28;20401;-85
2022/07/02 09:16:27;;;;;;;3.53;1.38;;;27.00;94.00;;;;;;5070972;28;20872;-85
2022/07/02 09:18:55;;;;;;;4.90;1.70;;;26.90;93.60;;;;;;5068688;28;20884;-83
2022/07/02 09:21:21;;;;;;;3.47;2.00;;;26.80;93.20;;;;;;5070814;28;20389;-85
2022/07/02 09:23:47;;;;;;;2.15;1.30;;;26.70;93.20;;;;;;5073679;28;20378;-84
2022/07/02 09:26:23;;;;;;;5.43;1.40;;;;;;;;;;5078908;28;20384;-83
2022/07/02 09:29:00;;;;;;;3.78;1.38;;;26.20;87.30;;;;;;5088475;28;20460;-83
2022/07/02 09:31:29;;;;;;;3.47;1.85;;;26.00;91.10;;;;;;5089968;28;20369;-84
2022/07/02 09:33:56;;;;;;;3.97;1.75;;;26.00;91.20;;;;;;5089852;28;20778;-85
2022/07/02 09:36:23;;;;;;;3.40;1.50;;;25.90;93.00;;;;;;5082762;28;20379;-83
2022/07/02 09:38:51;;;;;;;4.18;1.73;;;25.80;92.00;;;;;;5074045;28;20463;-82
2022/07/02 09:41:26;;;;;;;3.72;1.58;;;25.50;92.40;;;;;;5075009;28;20374;-84
2022/07/02 09:44:00;;;;;;;4.33;1.60;;;24.90;92.80;;;;;;5083564;28;20801;-84
2022/07/02 09:46:27;;;;;;;3.90;1.40;;;24.60;92.60;;;;;;5072930;28;20484;-83
2022/07/02 09:48:52;;;;;;;2.95;1.23;;;24.70;93.40;;;;;;5074716;28;20386;-84
2022/07/02 09:51:19;;;;;;;6.10;1.70;;;25.00;92.10;;;;;;5079792;28;20391;-85
2022/07/02 09:53:55;;;;;;;1.85;1.50;;;25.40;92.20;;;;;;5074580;28;20778;-83
2022/07/02 09:56:22;;;;;;;3.17;1.67;;;25.80;92.70;;;;;;5085236;28;20422;-84
2022/07/02 09:58:49;;;;;;;2.33;1.57;;;25.90;90.20;;;;;;5090765;28;20381;-84
2022/07/02 10:01:20;;;;;;;4.35;1.40;;;25.50;91.60;;;;;;5085678;28;20449;-85
2022/07/02 10:03:54;;;;;;;2.90;1.70;;;25.20;92.40;;;;;;5091513;28;20397;-83
2022/07/02 10:06:20;;;;;;;4.10;1.50;;;25.00;92.40;;;;;;5090133;28;20427;-84
2022/07/02 10:08:47;;;;;;;3.58;1.65;;;25.00;91.20;;;;;;5072514;28;20879;-84
2022/07/02 10:11:14;;;;;;;3.97;1.30;;;25.20;91.80;;;;;;5083285;28;20395;-81
2022/07/02 10:13:42;;;;;;;3.03;1.40;;;25.40;90.00;;;;;;5094256;28;20372;-85
2022/07/02 10:16:15;;;;;;;2.40;1.27;;;25.60;88.50;;;;;;5080725;28;20891;-83
2022/07/02 10:18:45;;;;;;;3.77;1.37;;;25.90;90.60;;;;;;5081567;28;20405;-85
2022/07/02 10:21:13;;;;;;;3.90;1.80;;;26.20;89.20;;;;;;5075887;28;20713;-85
2022/07/02 10:23:41;;;;;;;4.95;1.50;;;26.20;87.40;;;;;;5074036;28;20410;-83
2022/07/02 10:26:08;;;;;;;4.80;1.70;;;26.40;88.30;;;;;;5081219;28;20386;-84
2022/07/02 10:28:34;;;;;;;4.13;1.17;;;26.50;90.80;;;;;;5075909;28;20467;-83
2022/07/02 10:31:01;;;;;;;2.13;1.15;;;26.60;88.90;;;;;;5082435;28;20549;-84
2022/07/02 10:33:32;;;;;;;1.90;1.10;;;27.00;83.50;;;;;;5083974;28;20414;-84
2022/07/02 10:36:00;;;;;;;2.80;1.45;;;27.20;83.00;;;;;;5088838;28;20443;-86
2022/07/02 10:38:37;;;;;;;3.50;1.27;;;27.20;87.70;;;;;;5078194;28;20388;-86
2022/07/02 10:41:04;;;;;;;3.77;1.33;;;27.10;86.60;;;;;;5071798;28;20390;-87
2022/07/02 10:43:36;;;;;;;2.13;1.23;;;27.00;87.80;;;;;;5077382;28;20393;-85
2022/07/02 10:46:11;;;;;;;3.47;1.33;;;27.00;85.60;;;;;;5075381;28;20386;-85
2022/07/02 10:48:50;;;;;;;2.65;1.25;;;27.10;84.40;;;;;;5070044;28;20907;-83
2022/07/02 10:51:26;;;;;;;3.65;1.40;;;27.20;86.40;;;;;;5071019;28;20378;-86
2022/07/02 10:53:57;;;;;;;3.72;1.33;;;27.40;85.50;;;;;;5076366;28;20397;-86
2022/07/02 10:56:24;;;;;;;2.20;1.27;;;27.40;85.70;;;;;;5072701;28;20429;-87
2022/07/02 10:58:50;;;;;;;2.78;1.10;;;27.50;83.20;;;;;;5072321;28;20532;-84
2022/07/02 11:01:23;;;;;;;2.90;1.30;;;27.60;84.70;;;;;;5080195;28;20478;-86
2022/07/02 11:04:19;;;;;;;4.45;1.38;;;27.70;87.70;;;;;;5078209;28;20505;-87
2022/07/02 11:06:45;;;;;;;2.08;1.20;;;27.60;84.60;;;;;;5079696;28;20445;-87
2022/07/02 11:09:11;;;;;;;2.13;1.10;;;27.80;83.70;;;;;;5070284;28;20834;-84
2022/07/02 11:11:38;;;;;;;3.55;1.38;;;28.00;85.80;;;;;;5084268;28;20460;-82
2022/07/02 11:14:06;;;;;;;3.05;1.40;;;28.20;96.60;;;;;;5077611;28;20774;-84
2022/07/02 11:16:52;;;;;;;3.13;1.20;;;28.00;96.30;;;;;;5079354;28;20381;-86
2022/07/02 11:19:22;;;;;;;3.60;1.20;;;27.90;96.50;;;;;;5086523;28;20408;-83
2022/07/02 11:21:49;;;;;;;2.67;1.20;;;28.00;80.10;;;;;;5086085;28;20373;-85
2022/07/02 11:24:28;;;;;;;2.60;1.40;;;28.10;90.20;;;;;;5085793;28;20373;-85
2022/07/02 11:26:55;;;;;;;4.20;1.58;;;28.10;92.20;;;;;;5086613;28;20380;-85
2022/07/02 11:29:20;;;;;;;3.67;1.25;;;27.80;93.00;;;;;;5085006;28;20380;-86
2022/07/02 11:31:53;;;;;;;1.75;1.10;;;27.40;91.50;;;;;;5084699;28;20376;-86
2022/07/02 11:34:23;;;;;;;3.00;1.30;;;27.20;92.10;;;;;;5082558;28;20419;-86
2022/07/02 11:36:50;;;;;;;2.10;1.20;;;27.00;80.10;;;;;;5081314;28;20514;-83
2022/07/02 11:39:22;;;;;;;5.13;1.40;;;26.90;82.00;;;;;;5071639;28;20374;-84
2022/07/02 11:41:49;;;;;;;3.38;1.10;;;26.80;82.40;;;;;;5076343;28;20393;-84
2022/07/02 11:44:28;;;;;;;2.15;1.30;;;26.70;83.50;;;;;;5069908;28;20390;-85
2022/07/02 11:46:56;;;;;;;2.88;1.27;;;26.70;85.60;;;;;;5074419;28;21104;-86
2022/07/02 11:49:33;;;;;;;3.50;1.45;;;26.90;82.30;;;;;;5072208;28;20999;-86
2022/07/02 11:51:59;;;;;;;2.38;1.25;;;26.70;81.90;;;;;;5073021;28;20382;-86
2022/07/02 11:54:26;;;;;;;3.80;1.35;;;26.80;83.00;;;;;;5071716;28;20990;-85
2022/07/02 11:56:53;;;;;;;3.05;1.45;;;26.70;83.00;;;;;;5075941;28;20427;-84
2022/07/02 11:59:25;;;;;;;3.30;1.25;;;26.60;81.60;;;;;;5071437;28;20382;-84
2022/07/02 12:01:52;;;;;;;2.25;1.35;;;26.60;83.10;;;;;;5070738;28;20710;-85
2022/07/02 12:04:20;;;;;;;1.60;1.20;;;26.60;83.00;;;;;;5069652;28;20397;-83
2022/07/02 12:06:53;;;;;;;3.20;1.20;;;26.60;82.00;;;;;;5071312;28;20394;-84
2022/07/02 12:09:24;;;;;;;4.22;1.35;;;26.80;80.50;;;;;;5070019;28;20386;-84
2022/07/02 12:11:51;;;;;;;3.38;1.40;;;26.70;79.60;;;;;;5068975;28;20400;-84
2022/07/02 12:14:27;;;;;;;2.20;1.30;;;26.40;78.70;;;;;;5070915;28;20494;-84
2022/07/02 12:16:52;;;;;;;2.42;1.42;;;26.20;80.60;;;;;;5064317;28;20374;-84
2022/07/02 12:19:18;;;;;;;2.07;1.30;;;28.00;89.50;;;;;;5068804;28;20919;-84
2022/07/02 12:21:48;;;;;;;2.55;1.60;;;26.50;88.00;;;;;;5069494;28;20381;-84
2022/07/02 12:24:20;;;;;;;2.35;1.40;;;26.70;88.30;;;;;;5069489;28;20390;-83
2022/07/02 12:26:47;;;;;;;2.80;1.27;;;26.90;94.70;;;;;;5083926;28;20878;-83
2022/07/02 12:32:27;;;;;;;3.42;1.50;;;26.40;91.40;;;;;;5090101;28;20877;-82
2022/07/02 12:35:00;;;;;;;2.33;1.20;;;26.50;91.50;;;;;;5089136;28;20423;-82
2022/07/02 12:37:30;;;;;;;2.72;1.38;;;26.30;94.40;;;;;;5090926;28;20377;-84
2022/07/02 12:39:59;;;;;;;2.17;1.33;;;26.10;96.40;;;;;;5091432;28;20378;-81
2022/07/02 12:42:25;;;;;;;5.00;1.33;;;26.00;95.30;;;;;;5091020;28;20376;-81
2022/07/02 12:44:56;;;;;;;3.50;1.23;;;26.20;92.70;;;;;;5093317;28;20383;-82
2022/07/02 12:47:33;;;;;;;2.28;1.25;;;26.40;85.30;;;;;;5092157;28;20386;-82